createdAt,value
2023-03-31T00:01:28.592Z,43.08
2023-03-31T00:04:05.107Z,42.96
2023-03-31T00:06:38.328Z,43.00
2023-03-31T00:09:05.974Z,43.06
2023-03-31T00:11:34.792Z,43.06
2023-03-31T00:14:03.921Z,43.17
2023-03-31T00:16:32.958Z,43.06
2023-03-31T00:21:42.875Z,43.27
2023-03-31T00:24:15.327Z,43.14
2023-03-31T00:26:44.128Z,43.21
2023-03-31T00:29:17.534Z,43.26
2023-03-31T00:31:47.381Z,43.28
2023-03-31T00:34:14.194Z,43.12
2023-03-31T00:36:47.719Z,43.07
2023-03-31T00:39:19.271Z,43.16
2023-03-31T00:41:48.482Z,43.30
2023-03-31T00:44:25.429Z,43.46
2023-03-31T00:47:07.152Z,43.28
2023-03-31T00:49:34.232Z,43.35
2023-03-31T00:52:27.584Z,43.34
2023-03-31T00:55:01.477Z,43.32
2023-03-31T00:57:30.366Z,43.26
2023-03-31T00:59:59.249Z,43.50
2023-03-31T01:02:25.993Z,43.38
2023-03-31T01:04:56.865Z,43.42
2023-03-31T01:07:47.678Z,43.49
2023-03-31T01:10:16.610Z,43.63
2023-03-31T01:12:49.103Z,43.49
2023-03-31T01:15:15.904Z,43.72
2023-03-31T01:17:45.832Z,43.73
2023-03-31T01:20:24.689Z,43.54
2023-03-31T01:23:28.835Z,43.68
2023-03-31T01:26:17.177Z,43.35
2023-03-31T01:29:21.566Z,43.59
2023-03-31T01:31:57.938Z,43.80
2023-03-31T01:34:43.316Z,43.59
2023-03-31T01:37:38.638Z,43.67
2023-03-31T01:40:10.581Z,43.65
2023-03-31T01:42:46.264Z,43.70
2023-03-31T01:45:21.228Z,43.76
2023-03-31T01:48:06.811Z,43.86
2023-03-31T01:50:49.608Z,43.81
2023-03-31T01:54:04.148Z,43.66
2023-03-31T01:57:16.587Z,43.86
2023-03-31T02:00:01.669Z,43.79
2023-03-31T02:02:31.448Z,43.99
2023-03-31T02:05:05.513Z,44.04
2023-03-31T02:07:49.168Z,43.88
2023-03-31T02:10:18.248Z,43.98
2023-03-31T02:12:47.332Z,44.05
2023-03-31T02:15:19.265Z,44.09
2023-03-31T02:17:51.743Z,44.10
2023-03-31T02:20:21.176Z,44.32
2023-03-31T02:22:55.404Z,44.21
2023-03-31T02:25:41.314Z,44.15
2023-03-31T02:28:12.413Z,44.33
2023-03-31T02:33:19.509Z,44.71
2023-03-31T02:35:46.249Z,44.66
2023-03-31T02:38:15.873Z,44.86
2023-03-31T02:40:42.557Z,45.04
2023-03-31T02:43:11.551Z,44.93
2023-03-31T02:45:49.501Z,45.22
2023-03-31T02:48:19.233Z,45.22
2023-03-31T02:54:16.674Z,45.20
2023-03-31T02:57:17.671Z,45.24
2023-03-31T02:59:53.464Z,45.32
2023-03-31T03:02:32.199Z,45.59
2023-03-31T03:05:13.761Z,45.50
2023-03-31T03:07:46.567Z,45.51
2023-03-31T03:10:21.296Z,45.60
2023-03-31T03:13:12.412Z,45.58
2023-03-31T03:15:50.798Z,45.57
2023-03-31T03:18:19.733Z,45.63
2023-03-31T03:20:51.161Z,45.63
2023-03-31T03:23:22.795Z,45.80
2023-03-31T03:25:51.864Z,45.60
2023-03-31T03:28:21.437Z,45.60
2023-03-31T03:30:51.466Z,45.73
2023-03-31T03:33:25.015Z,45.76
2023-03-31T03:35:52.002Z,45.70
2023-03-31T03:38:18.733Z,45.79
2023-03-31T03:40:50.325Z,45.95
2023-03-31T03:43:21.877Z,45.69
2023-03-31T03:45:54.882Z,45.69
2023-03-31T03:48:21.664Z,45.91
2023-03-31T03:50:50.732Z,45.90
2023-03-31T03:53:17.338Z,45.75
2023-03-31T03:55:49.091Z,45.81
2023-03-31T03:58:17.246Z,45.90
2023-03-31T04:00:48.630Z,45.66
2023-03-31T04:03:15.437Z,45.83
2023-03-31T04:05:45.310Z,45.82
2023-03-31T04:08:14.143Z,45.92
2023-03-31T04:10:46.942Z,45.75
2023-03-31T04:13:13.600Z,45.62
2023-03-31T04:15:40.356Z,45.93
2023-03-31T04:18:11.338Z,45.69
2023-03-31T04:20:40.891Z,45.92
2023-03-31T04:23:09.809Z,45.96
2023-03-31T04:25:46.420Z,45.98
2023-03-31T04:28:15.469Z,45.80
2023-03-31T04:30:44.510Z,45.82
2023-03-31T04:33:15.728Z,45.85
2023-03-31T04:35:52.721Z,46.09
2023-03-31T04:38:27.372Z,45.85
2023-03-31T04:40:54.269Z,45.99
2023-03-31T04:43:21.269Z,45.94
2023-03-31T04:45:47.953Z,45.93
2023-03-31T04:48:17.294Z,46.00
2023-03-31T04:50:48.801Z,46.05
2023-03-31T04:53:20.709Z,46.01
2023-03-31T04:55:47.330Z,45.82
2023-03-31T04:58:18.771Z,46.06
2023-03-31T05:00:47.934Z,45.99
2023-03-31T05:03:14.807Z,45.98
2023-03-31T05:05:47.107Z,46.00
2023-03-31T05:08:13.731Z,45.99
2023-03-31T05:10:45.289Z,45.96
2023-03-31T05:13:12.005Z,46.05
2023-03-31T05:15:43.382Z,46.02
2023-03-31T05:18:10.087Z,46.03
2023-03-31T05:20:38.948Z,45.95
2023-03-31T05:23:12.905Z,46.19
2023-03-31T05:25:42.416Z,45.97
2023-03-31T05:28:11.321Z,45.99
2023-03-31T05:30:40.177Z,46.19
2023-03-31T05:33:06.929Z,46.07
2023-03-31T05:35:33.570Z,46.00
2023-03-31T05:38:00.280Z,46.24
2023-03-31T05:40:26.920Z,46.19
2023-03-31T05:42:58.225Z,45.97
2023-03-31T05:45:24.849Z,46.01
2023-03-31T05:47:51.619Z,46.25
2023-03-31T05:50:20.724Z,46.24
2023-03-31T05:52:47.418Z,46.15
2023-03-31T05:55:14.074Z,42.33
2023-03-31T05:57:43.620Z,41.63
2023-03-31T06:00:15.163Z,42.25
2023-03-31T06:02:48.028Z,41.24
2023-03-31T06:05:14.887Z,41.49
2023-03-31T06:07:43.723Z,41.98
2023-03-31T06:10:13.092Z,42.37
2023-03-31T06:12:48.550Z,42.41
2023-03-31T06:15:16.243Z,42.35
2023-03-31T06:17:45.363Z,42.95
2023-03-31T06:20:27.187Z,43.27
2023-03-31T06:22:55.174Z,43.62
2023-03-31T06:25:24.562Z,43.59
2023-03-31T06:27:53.877Z,43.88
2023-03-31T06:30:20.729Z,43.80
2023-03-31T06:32:47.392Z,44.02
2023-03-31T06:35:17.328Z,43.83
2023-03-31T06:37:49.675Z,43.69
2023-03-31T06:40:16.591Z,43.77
2023-03-31T06:42:45.659Z,43.82
2023-03-31T06:45:14.577Z,43.78
2023-03-31T06:47:44.038Z,43.83
2023-03-31T06:50:11.577Z,43.68
2023-03-31T06:52:38.264Z,43.70
2023-03-31T06:55:05.507Z,43.55
2023-03-31T06:57:35.309Z,43.75
2023-03-31T07:00:02.186Z,43.60
2023-03-31T07:02:31.403Z,43.48
2023-03-31T07:04:58.118Z,43.57
2023-03-31T07:07:28.023Z,43.33
2023-03-31T07:09:56.853Z,43.38
2023-03-31T07:12:24.553Z,43.30
2023-03-31T07:14:51.354Z,43.28
2023-03-31T07:17:18.123Z,43.07
2023-03-31T07:19:48.255Z,43.14
2023-03-31T07:22:15.912Z,43.06
2023-03-31T07:24:44.796Z,42.92
2023-03-31T07:27:11.398Z,42.87
2023-03-31T07:29:40.767Z,42.85
2023-03-31T07:32:07.622Z,42.84
2023-03-31T07:34:37.614Z,43.06
2023-03-31T07:37:06.731Z,42.74
2023-03-31T07:39:36.582Z,42.69
2023-03-31T07:42:03.322Z,42.79
2023-03-31T07:44:29.940Z,42.80
2023-03-31T07:47:01.433Z,42.71
2023-03-31T07:49:31.242Z,42.64
2023-03-31T07:51:57.928Z,42.55
2023-03-31T07:54:24.920Z,42.57
2023-03-31T07:56:56.388Z,42.51
2023-03-31T07:59:25.485Z,42.75
2023-03-31T08:01:56.850Z,42.55
2023-03-31T08:04:23.616Z,42.69
2023-03-31T08:06:52.512Z,42.65
2023-03-31T08:09:24.009Z,42.39
2023-03-31T08:11:55.366Z,42.44
2023-03-31T08:14:34.134Z,42.38
2023-03-31T08:17:07.468Z,42.25
2023-03-31T08:19:34.187Z,42.62
2023-03-31T08:22:12.205Z,42.33
2023-03-31T08:24:43.657Z,42.41
2023-03-31T08:27:13.310Z,42.41
2023-03-31T08:29:42.246Z,42.35
2023-03-31T08:32:13.651Z,42.06
2023-03-31T08:34:44.712Z,42.24
2023-03-31T08:37:13.616Z,42.06
2023-03-31T08:39:40.360Z,42.42
2023-03-31T08:42:22.733Z,42.23
2023-03-31T08:45:04.236Z,42.04
2023-03-31T08:47:35.291Z,42.30
2023-03-31T08:50:13.917Z,42.27
2023-03-31T08:52:51.265Z,42.04
2023-03-31T08:55:32.348Z,42.27
2023-03-31T08:58:13.662Z,41.95
2023-03-31T09:00:48.958Z,42.10
2023-03-31T09:03:31.663Z,42.10
2023-03-31T09:06:03.233Z,41.94
2023-03-31T09:08:37.568Z,42.10
2023-03-31T09:11:08.061Z,42.11
2023-03-31T09:13:37.548Z,42.09
2023-03-31T09:16:35.886Z,41.96
2023-03-31T09:19:02.760Z,42.13
2023-03-31T09:21:35.732Z,41.97
2023-03-31T09:24:10.658Z,41.86
2023-03-31T09:27:09.911Z,41.69
2023-03-31T09:29:43.131Z,41.65
2023-03-31T09:32:24.595Z,41.86
2023-03-31T09:35:01.159Z,41.65
2023-03-31T09:37:32.974Z,41.74
2023-03-31T09:40:07.510Z,41.71
2023-03-31T09:42:37.990Z,41.63
2023-03-31T09:45:05.002Z,41.68
2023-03-31T09:47:39.990Z,41.57
2023-03-31T09:50:07.764Z,41.27
2023-03-31T09:52:46.296Z,41.74
2023-03-31T09:55:39.590Z,41.48
2023-03-31T09:58:12.232Z,41.24
2023-03-31T10:00:43.386Z,41.15
2023-03-31T10:03:15.148Z,41.36
2023-03-31T10:05:52.643Z,41.06
2023-03-31T10:08:28.228Z,41.33
2023-03-31T10:10:57.818Z,41.30
2023-03-31T10:13:31.251Z,41.26
2023-03-31T10:16:08.518Z,41.17
2023-03-31T10:18:39.823Z,41.38
2023-03-31T10:21:24.019Z,41.14
2023-03-31T10:23:51.274Z,41.11
2023-03-31T10:26:24.782Z,41.14
2023-03-31T10:28:55.198Z,41.46
2023-03-31T10:31:34.848Z,41.19
2023-03-31T10:34:05.764Z,41.36
2023-03-31T10:36:32.450Z,41.26
2023-03-31T10:39:01.317Z,41.33
2023-03-31T10:41:34.631Z,41.45
2023-03-31T10:44:06.040Z,41.36
2023-03-31T10:46:48.838Z,41.48
2023-03-31T10:49:21.758Z,41.23
2023-03-31T10:52:02.189Z,41.33
2023-03-31T10:54:28.788Z,41.54
2023-03-31T10:57:00.337Z,41.30
2023-03-31T10:59:50.673Z,41.14
2023-03-31T11:02:29.330Z,41.35
2023-03-31T11:05:18.340Z,41.40
2023-03-31T11:08:22.956Z,41.28
2023-03-31T11:11:10.619Z,41.09
2023-03-31T11:14:11.134Z,41.45
2023-03-31T11:16:57.477Z,41.30
2023-03-31T11:19:45.054Z,41.29
2023-03-31T11:22:20.816Z,41.24
2023-03-31T11:27:55.859Z,41.53
2023-03-31T11:30:39.830Z,41.51
2023-03-31T11:33:22.762Z,41.38
2023-03-31T11:36:20.428Z,41.48
2023-03-31T11:39:09.255Z,41.50
2023-03-31T11:41:52.431Z,41.42
2023-03-31T11:44:21.778Z,41.53
2023-03-31T11:46:54.887Z,41.40
2023-03-31T11:49:27.518Z,41.47
2023-03-31T11:52:02.969Z,41.44
2023-03-31T11:54:39.096Z,41.36
2023-03-31T11:57:23.694Z,41.41
2023-03-31T12:00:06.368Z,41.50
2023-03-31T12:02:55.169Z,41.44
2023-03-31T12:05:29.081Z,41.57
2023-03-31T12:08:24.785Z,41.70
2023-03-31T12:10:56.261Z,41.64
2023-03-31T12:13:28.908Z,41.65
2023-03-31T12:16:15.022Z,41.49
2023-03-31T12:18:54.096Z,41.58
2023-03-31T12:21:26.621Z,41.69
2023-03-31T12:23:53.208Z,41.75
2023-03-31T12:26:36.377Z,41.66
2023-03-31T12:29:13.012Z,41.79
2023-03-31T12:31:41.977Z,41.56
2023-03-31T12:34:16.390Z,41.79
2023-03-31T12:37:19.195Z,41.54
2023-03-31T12:39:46.230Z,41.53
2023-03-31T12:42:44.643Z,41.58
2023-03-31T12:45:20.422Z,41.54
2023-03-31T12:47:47.420Z,41.60
2023-03-31T12:50:27.815Z,41.84
2023-03-31T12:53:06.116Z,41.68
2023-03-31T12:55:39.044Z,41.63
2023-03-31T12:58:32.500Z,41.75
2023-03-31T13:01:24.219Z,41.68
2023-03-31T13:03:54.745Z,41.85
2023-03-31T13:06:27.527Z,41.72
2023-03-31T13:08:54.259Z,41.82
2023-03-31T13:11:23.261Z,41.83
2023-03-31T13:14:01.026Z,41.71
2023-03-31T13:16:30.574Z,41.90
2023-03-31T13:19:02.069Z,41.72
2023-03-31T13:21:33.489Z,41.66
2023-03-31T13:24:05.527Z,41.87
2023-03-31T13:26:48.809Z,41.74
2023-03-31T13:29:15.598Z,41.78
2023-03-31T13:32:01.088Z,41.67
2023-03-31T13:34:35.530Z,41.77
2023-03-31T13:37:30.530Z,41.89
2023-03-31T13:39:59.901Z,41.61
2023-03-31T13:42:49.382Z,41.85
2023-03-31T13:45:38.076Z,41.90
2023-03-31T13:48:26.412Z,41.89
2023-03-31T13:51:16.246Z,41.89
2023-03-31T13:53:58.143Z,41.87
2023-03-31T13:56:28.412Z,41.94
2023-03-31T13:59:32.791Z,41.97
2023-03-31T14:02:27.312Z,41.83
2023-03-31T14:04:56.999Z,42.02
2023-03-31T14:07:37.840Z,41.84
2023-03-31T14:10:07.256Z,41.93
2023-03-31T14:12:35.818Z,41.87
2023-03-31T14:15:05.233Z,42.05
2023-03-31T14:17:43.945Z,42.27
2023-03-31T14:20:36.471Z,42.05
2023-03-31T14:23:08.612Z,41.95
2023-03-31T14:25:36.156Z,42.19
2023-03-31T14:28:21.756Z,41.99
2023-03-31T14:31:11.046Z,42.13
2023-03-31T14:34:15.796Z,42.18
2023-03-31T14:37:01.808Z,42.04
2023-03-31T14:39:36.522Z,42.05
2023-03-31T14:42:06.286Z,42.08
2023-03-31T14:44:34.192Z,42.13
2023-03-31T14:47:01.855Z,42.20
2023-03-31T14:49:30.498Z,42.27
2023-03-31T14:52:03.408Z,42.19
2023-03-31T14:54:34.354Z,42.13
2023-03-31T14:57:03.618Z,42.16
2023-03-31T14:59:32.831Z,42.22
2023-03-31T15:02:01.765Z,42.08
2023-03-31T15:04:41.296Z,42.33
2023-03-31T15:07:13.544Z,42.13
2023-03-31T15:09:40.163Z,42.15
2023-03-31T15:12:14.961Z,42.21
2023-03-31T15:15:04.062Z,41.93
2023-03-31T15:17:39.462Z,42.19
2023-03-31T15:20:39.948Z,42.22
2023-03-31T15:23:25.295Z,42.25
2023-03-31T15:26:02.001Z,42.16
2023-03-31T15:28:34.085Z,42.26
2023-03-31T15:31:10.268Z,42.24
2023-03-31T15:33:41.649Z,42.27
2023-03-31T15:36:13.715Z,42.25
2023-03-31T15:38:42.481Z,42.26
2023-03-31T15:41:17.071Z,42.37
2023-03-31T15:44:05.624Z,42.16
2023-03-31T15:46:38.527Z,42.18
2023-03-31T15:49:05.925Z,42.46
2023-03-31T15:51:43.737Z,42.43
2023-03-31T15:54:49.968Z,42.24
2023-03-31T15:57:19.998Z,42.32
2023-03-31T15:59:55.827Z,42.38
2023-03-31T16:02:25.137Z,42.12
2023-03-31T16:04:58.163Z,42.38
2023-03-31T16:07:33.484Z,42.25
2023-03-31T16:10:06.339Z,42.19
2023-03-31T16:12:36.899Z,42.37
2023-03-31T16:15:10.625Z,42.38
2023-03-31T16:17:43.192Z,42.17
2023-03-31T16:20:16.823Z,42.21
2023-03-31T16:22:48.341Z,42.39
2023-03-31T16:25:19.125Z,42.19
2023-03-31T16:27:47.891Z,42.12
2023-03-31T16:30:16.891Z,42.07
2023-03-31T16:33:11.794Z,42.29
2023-03-31T16:36:01.773Z,42.33
2023-03-31T16:38:29.582Z,42.33
2023-03-31T16:40:57.626Z,42.21
2023-03-31T16:43:28.744Z,42.36
2023-03-31T16:45:58.389Z,42.39
2023-03-31T16:48:29.278Z,42.20
2023-03-31T16:50:57.545Z,42.33
2023-03-31T16:53:27.854Z,42.53
2023-03-31T16:55:55.076Z,42.28
2023-03-31T16:58:24.437Z,42.33
2023-03-31T17:00:58.190Z,42.33
2023-03-31T17:03:25.306Z,42.18
2023-03-31T17:05:57.805Z,42.22
2023-03-31T17:08:29.271Z,42.25
2023-03-31T17:11:07.081Z,42.38
2023-03-31T17:13:38.508Z,42.32
2023-03-31T17:16:18.657Z,42.06
2023-03-31T17:18:53.129Z,42.36
2023-03-31T17:21:24.656Z,42.18
2023-03-31T17:23:53.497Z,42.25
2023-03-31T17:26:22.328Z,42.17
2023-03-31T17:28:49.104Z,42.41
2023-03-31T17:31:19.462Z,42.30
2023-03-31T17:33:50.869Z,42.23
2023-03-31T17:36:20.150Z,42.23
2023-03-31T17:38:47.132Z,42.09
2023-03-31T17:41:18.223Z,42.16
2023-03-31T17:43:45.854Z,42.25
2023-03-31T17:46:16.370Z,42.19
2023-03-31T17:48:43.420Z,42.26
2023-03-31T17:51:15.420Z,42.24
2023-03-31T17:53:46.234Z,42.17
2023-03-31T17:56:13.280Z,42.35
2023-03-31T17:58:42.095Z,42.40
2023-03-31T18:01:09.575Z,42.27
2023-03-31T18:03:39.251Z,42.26
2023-03-31T18:06:07.565Z,42.39
2023-03-31T18:08:34.926Z,42.26
2023-03-31T18:11:08.314Z,42.23
2023-03-31T18:13:36.310Z,42.12
2023-03-31T18:16:08.778Z,42.39
2023-03-31T18:18:36.748Z,42.26
2023-03-31T18:21:09.825Z,42.36
2023-03-31T18:23:36.742Z,42.19
2023-03-31T18:26:07.429Z,42.37
2023-03-31T18:28:36.286Z,42.20
2023-03-31T18:31:06.752Z,42.23
2023-03-31T18:33:36.105Z,42.06
2023-03-31T18:36:05.089Z,42.22
2023-03-31T18:38:34.483Z,42.08
2023-03-31T18:41:03.647Z,42.00
2023-03-31T18:43:33.346Z,42.41
2023-03-31T18:46:04.833Z,42.11
2023-03-31T18:48:31.598Z,42.20
2023-03-31T18:50:58.467Z,42.29
2023-03-31T18:53:25.275Z,42.17
2023-03-31T18:55:57.885Z,42.26
2023-03-31T18:58:30.350Z,42.22
2023-03-31T19:00:57.724Z,41.86
2023-03-31T19:03:27.663Z,42.25
2023-03-31T19:06:06.757Z,42.05
2023-03-31T19:08:33.445Z,42.09
2023-03-31T19:11:07.574Z,42.18
2023-03-31T19:13:34.497Z,42.22
2023-03-31T19:16:01.660Z,42.17
2023-03-31T19:18:33.635Z,42.30
2023-03-31T19:21:03.025Z,42.11
2023-03-31T19:23:34.126Z,42.31
2023-03-31T19:26:02.977Z,42.18
2023-03-31T19:28:32.358Z,42.06
2023-03-31T19:30:59.165Z,42.07
2023-03-31T19:33:29.042Z,42.24
2023-03-31T19:36:02.089Z,42.10
2023-03-31T19:38:32.054Z,42.24
2023-03-31T19:41:00.038Z,42.19
2023-03-31T19:43:31.746Z,41.98
2023-03-31T19:45:58.709Z,42.11
2023-03-31T19:48:26.648Z,42.18
2023-03-31T19:50:59.609Z,42.15
2023-03-31T19:53:26.605Z,42.27
2023-03-31T19:55:57.742Z,42.22
2023-03-31T19:58:27.194Z,42.21
2023-03-31T20:00:54.610Z,42.09
2023-03-31T20:03:24.544Z,42.22
2023-03-31T20:05:52.041Z,42.18
2023-03-31T20:08:18.666Z,42.08
2023-03-31T20:10:47.512Z,42.05
2023-03-31T20:13:17.848Z,42.16
2023-03-31T20:15:49.277Z,42.09
2023-03-31T20:18:19.718Z,42.23
2023-03-31T20:20:51.233Z,42.03
2023-03-31T20:23:21.087Z,42.18
2023-03-31T20:25:51.286Z,42.08
2023-03-31T20:28:20.160Z,42.11
2023-03-31T20:30:51.914Z,42.24
2023-03-31T20:33:18.549Z,42.30
2023-03-31T20:35:50.134Z,42.01
2023-03-31T20:38:19.054Z,42.26
2023-03-31T20:40:49.119Z,42.05
2023-03-31T20:43:15.778Z,42.24
2023-03-31T20:45:47.129Z,42.10
2023-03-31T20:48:19.273Z,42.05
2023-03-31T20:50:46.029Z,41.88
2023-03-31T20:53:17.947Z,42.18
2023-03-31T20:55:47.347Z,42.05
2023-03-31T20:58:14.149Z,42.26
2023-03-31T21:00:46.136Z,42.24
2023-03-31T21:03:12.892Z,42.18
2023-03-31T21:05:48.637Z,42.30
2023-03-31T21:08:15.815Z,42.04
2023-03-31T21:10:43.538Z,42.18
2023-03-31T21:13:16.725Z,42.00
2023-03-31T21:15:47.460Z,42.05
2023-03-31T21:18:16.789Z,42.14
2023-03-31T21:20:53.839Z,42.20
2023-03-31T21:23:22.945Z,42.10
2023-03-31T21:25:50.625Z,41.91
2023-03-31T21:28:19.822Z,42.17
2023-03-31T21:30:56.000Z,42.05
2023-03-31T21:33:28.831Z,42.19
2023-03-31T21:35:59.038Z,42.26
2023-03-31T21:38:25.963Z,41.99
2023-03-31T21:40:52.709Z,42.09
2023-03-31T21:43:19.853Z,42.03
2023-03-31T21:45:48.670Z,42.32
2023-03-31T21:48:15.406Z,42.07
2023-03-31T21:50:42.196Z,42.00
2023-03-31T21:53:12.192Z,41.99
2023-03-31T21:55:41.613Z,42.16
2023-03-31T21:58:10.978Z,41.99
2023-03-31T22:00:39.983Z,41.91
2023-03-31T22:05:43.505Z,42.12
2023-03-31T22:08:13.021Z,41.98
2023-03-31T22:10:39.930Z,41.88
2023-03-31T22:13:09.222Z,41.92
2023-03-31T22:15:38.058Z,41.92
2023-03-31T22:18:04.795Z,42.12
2023-03-31T22:20:31.879Z,42.11
2023-03-31T22:23:00.920Z,42.05
2023-03-31T22:25:30.732Z,41.97
2023-03-31T22:28:06.065Z,41.85
2023-03-31T22:30:33.861Z,41.98
2023-03-31T22:33:02.774Z,42.00
2023-03-31T22:35:34.427Z,41.75
2023-03-31T22:38:04.461Z,41.98
2023-03-31T22:40:32.423Z,41.98
2023-03-31T22:43:01.654Z,41.82
2023-03-31T22:45:33.775Z,42.04
2023-03-31T22:48:00.703Z,41.79
2023-03-31T22:50:27.486Z,41.86
2023-03-31T22:53:00.606Z,41.91
2023-03-31T22:55:27.306Z,42.05
2023-03-31T22:57:56.998Z,41.80
2023-03-31T23:00:25.839Z,41.80
2023-03-31T23:02:52.744Z,42.00
2023-03-31T23:05:21.715Z,41.96
2023-03-31T23:07:48.469Z,41.93
2023-03-31T23:10:17.275Z,41.90
2023-03-31T23:12:46.325Z,42.11
2023-03-31T23:15:15.837Z,41.86
2023-03-31T23:17:47.246Z,41.96
2023-03-31T23:20:16.164Z,41.89
2023-03-31T23:22:45.014Z,42.00
2023-03-31T23:25:13.814Z,41.93
2023-03-31T23:27:42.670Z,41.83
2023-03-31T23:30:12.015Z,41.97
2023-03-31T23:32:41.112Z,41.90
2023-03-31T23:35:08.186Z,41.89
2023-03-31T23:37:37.006Z,41.89
2023-03-31T23:40:04.401Z,41.83
2023-03-31T23:42:31.381Z,41.90
2023-03-31T23:45:00.641Z,41.91
2023-03-31T23:47:29.500Z,41.83
2023-03-31T23:49:56.978Z,41.93
2023-03-31T23:52:27.412Z,41.70
2023-03-31T23:54:56.239Z,41.82
2023-03-31T23:57:25.108Z,41.75
2023-03-31T23:59:52.555Z,41.72
